createdAt,value
2022-12-06T00:01:06.460Z,78.20
2022-12-06T00:06:05.651Z,98.30
2022-12-06T00:11:05.799Z,110.20
2022-12-06T00:16:04.061Z,156.40
2022-12-06T00:21:03.267Z,125.30
2022-12-06T00:26:02.440Z,128.90
2022-12-06T00:31:03.603Z,191.00
2022-12-06T00:36:00.754Z,108.90
2022-12-06T00:41:00.903Z,95.80
2022-12-06T00:45:59.180Z,92.50
2022-12-06T00:51:00.404Z,90.30
2022-12-06T00:55:58.706Z,94.40
2022-12-06T01:00:57.013Z,103.40
2022-12-06T01:05:56.295Z,73.50
2022-12-06T01:10:55.548Z,66.40
2022-12-06T01:15:54.839Z,64.60
2022-12-06T01:20:54.111Z,63.20
2022-12-06T01:25:57.544Z,56.20
2022-12-06T01:30:52.641Z,60.00
2022-12-06T01:35:52.750Z,36.00
2022-12-06T01:40:51.031Z,36.20
2022-12-06T01:45:50.388Z,33.00
2022-12-06T01:50:49.505Z,31.80
2022-12-06T01:55:48.825Z,30.40
2022-12-06T02:00:48.140Z,26.10
2022-12-06T02:05:47.455Z,24.50
2022-12-06T02:10:46.758Z,24.10
2022-12-06T02:15:46.080Z,23.80
2022-12-06T02:20:47.390Z,22.30
2022-12-06T02:25:46.733Z,17.70
2022-12-06T02:30:43.904Z,20.00
2022-12-06T02:35:43.087Z,16.50
2022-12-06T02:40:42.380Z,16.50
2022-12-06T20:08:31.987Z,12.20
2022-12-06T20:13:30.223Z,12.10
2022-12-06T20:18:29.493Z,167.90
2022-12-06T20:23:28.768Z,297.30
2022-12-06T20:28:28.723Z,343.70
2022-12-06T20:33:27.246Z,287.70
2022-12-06T20:38:26.470Z,246.50
2022-12-06T20:43:26.729Z,213.90
2022-12-06T20:48:26.018Z,184.70
2022-12-06T20:53:24.262Z,163.10
2022-12-06T20:58:27.526Z,144.40
2022-12-06T21:03:22.684Z,131.90
2022-12-06T21:08:21.680Z,234.30
2022-12-06T21:13:22.118Z,290.90
2022-12-06T21:18:24.406Z,228.50
2022-12-06T21:23:19.606Z,196.00
2022-12-06T21:28:18.888Z,166.90
2022-12-06T21:33:18.152Z,151.70
2022-12-06T21:38:17.431Z,137.40
2022-12-06T21:43:16.691Z,124.30
2022-12-06T21:48:15.963Z,104.90
2022-12-06T21:53:17.312Z,100.20
2022-12-06T21:58:14.579Z,270.00
2022-12-06T22:03:19.185Z,284.90
2022-12-06T22:08:13.144Z,231.90
2022-12-06T22:13:13.215Z,197.30
2022-12-06T22:18:12.492Z,350.50
2022-12-06T22:23:10.795Z,388.10
2022-12-06T22:28:10.121Z,324.70
2022-12-06T22:33:10.448Z,282.40
2022-12-06T22:38:08.745Z,308.30
2022-12-06T22:43:07.999Z,419.40
2022-12-06T22:48:08.258Z,330.40
2022-12-06T22:53:06.501Z,293.00
2022-12-06T22:58:05.737Z,265.70
2022-12-06T23:03:04.974Z,243.10
2022-12-06T23:08:05.252Z,333.40
2022-12-06T23:13:03.522Z,334.20
2022-12-06T23:18:03.752Z,293.70
2022-12-06T23:23:01.983Z,261.00
2022-12-06T23:28:03.232Z,223.50
2022-12-06T23:33:00.487Z,197.20
2022-12-06T23:38:00.773Z,179.50
2022-12-06T23:43:00.044Z,156.80
2022-12-06T23:47:59.309Z,151.50
2022-12-06T23:52:57.574Z,137.00
2022-12-06T23:57:56.888Z,122.00
